createdAt,value
2023-11-18T00:00:00.528Z,6.05
2023-11-18T00:01:00.514Z,6.11
2023-11-18T00:02:00.559Z,6.09
2023-11-18T00:03:00.644Z,6.12
2023-11-18T00:04:00.497Z,6.12
2023-11-18T00:05:00.514Z,6.11
2023-11-18T00:06:00.474Z,6.18
2023-11-18T00:07:00.479Z,6.21
2023-11-18T00:08:00.563Z,6.25
2023-11-18T00:09:00.400Z,6.21
2023-11-18T00:10:00.419Z,6.28
2023-11-18T00:11:00.451Z,6.31
2023-11-18T00:12:00.364Z,6.42
2023-11-18T00:13:00.452Z,6.38
2023-11-18T00:14:23.437Z,6.46
2023-11-18T00:15:00.339Z,6.42
2023-11-18T00:16:00.385Z,6.43
2023-11-18T00:17:00.465Z,6.57
2023-11-18T00:18:00.426Z,6.56
2023-11-18T00:19:00.350Z,6.56
2023-11-18T00:20:00.474Z,6.60
2023-11-18T00:21:00.370Z,6.52
2023-11-18T00:22:00.306Z,6.57
2023-11-18T00:23:00.352Z,6.57
2023-11-18T00:24:00.296Z,6.47
2023-11-18T00:25:00.293Z,6.43
2023-11-18T00:26:00.272Z,6.34
2023-11-18T00:27:00.256Z,6.38
2023-11-18T00:28:00.227Z,6.43
2023-11-18T00:29:00.260Z,6.47
2023-11-18T00:30:00.364Z,6.43
2023-11-18T00:31:00.394Z,6.45
2023-11-18T00:32:00.511Z,6.43
2023-11-18T00:33:00.444Z,6.56
2023-11-18T00:34:00.144Z,6.46
2023-11-18T00:35:00.231Z,6.38
2023-11-18T00:36:00.161Z,6.40
2023-11-18T00:37:00.106Z,6.35
2023-11-18T00:38:00.203Z,6.42
2023-11-18T00:39:00.130Z,6.40
2023-11-18T00:40:00.144Z,6.34
2023-11-18T00:41:00.102Z,6.40
2023-11-18T00:42:00.109Z,6.46
2023-11-18T00:43:00.057Z,6.38
2023-11-18T00:44:00.062Z,6.42
2023-11-18T00:45:00.025Z,6.45
2023-11-18T00:46:00.089Z,6.37
2023-11-18T00:47:00.099Z,6.37
2023-11-18T00:48:00.028Z,6.40
2023-11-18T00:49:00.060Z,6.47
2023-11-18T00:50:00.082Z,6.42
2023-11-18T00:51:00.042Z,6.46
2023-11-18T00:51:59.955Z,6.45
2023-11-18T00:53:00.060Z,6.52
2023-11-18T00:53:59.970Z,6.40
2023-11-18T00:54:59.974Z,6.37
2023-11-18T00:55:59.966Z,6.40
2023-11-18T00:56:59.911Z,6.43
2023-11-18T00:57:59.883Z,6.43
2023-11-18T00:58:59.893Z,6.42
2023-11-18T00:59:59.954Z,6.61
2023-11-18T01:00:59.924Z,6.50
2023-11-18T01:01:59.879Z,6.50
2023-11-18T01:03:00.004Z,6.53
2023-11-18T01:03:59.825Z,6.56
2023-11-18T01:04:59.849Z,6.56
2023-11-18T01:05:59.838Z,6.40
2023-11-18T01:06:59.844Z,6.40
2023-11-18T01:07:59.857Z,6.31
2023-11-18T01:08:59.773Z,6.25
2023-11-18T01:09:59.759Z,6.18
2023-11-18T01:10:59.798Z,6.13
2023-11-18T01:12:07.931Z,6.13
2023-11-18T01:12:59.755Z,6.05
2023-11-18T01:13:59.834Z,6.13
2023-11-18T01:14:59.771Z,6.18
2023-11-18T01:15:59.724Z,6.21
2023-11-18T01:16:59.727Z,6.18
2023-11-18T01:20:24.501Z,6.42
2023-11-18T01:21:24.532Z,6.43
2023-11-18T01:23:19.990Z,6.35
2023-11-18T01:24:19.581Z,6.42
2023-11-18T01:26:15.015Z,6.43
2023-11-18T01:27:14.912Z,6.43
2023-11-18T01:29:09.229Z,6.37
2023-11-18T01:30:09.115Z,6.49
2023-11-18T01:32:05.612Z,6.61
2023-11-18T01:33:05.507Z,6.53
2023-11-18T01:35:00.833Z,6.56
2023-11-18T01:36:00.670Z,6.57
2023-11-18T01:37:55.050Z,6.37
2023-11-18T01:38:54.976Z,6.32
2023-11-18T01:40:49.147Z,6.53
2023-11-18T01:41:48.940Z,6.38
2023-11-18T01:43:43.497Z,6.56
2023-11-18T01:44:43.402Z,6.55
2023-11-18T01:46:37.199Z,6.60
2023-11-18T01:47:36.888Z,6.53
2023-11-18T01:49:31.220Z,6.60
2023-11-18T01:50:31.013Z,6.61
2023-11-18T01:52:26.682Z,6.70
2023-11-18T01:53:26.259Z,6.64
2023-11-18T01:55:20.499Z,6.67
2023-11-18T01:56:20.508Z,6.68
2023-11-18T01:58:17.304Z,6.71
2023-11-18T01:59:17.258Z,6.64
2023-11-18T02:01:11.895Z,6.73
2023-11-18T02:02:11.752Z,6.70
2023-11-18T02:04:08.332Z,6.78
2023-11-18T02:05:07.867Z,6.82
2023-11-18T02:07:02.788Z,6.79
2023-11-18T02:08:02.529Z,6.91
2023-11-18T02:09:57.094Z,6.93
2023-11-18T02:10:56.992Z,6.99
2023-11-18T02:12:51.942Z,6.93
2023-11-18T02:13:51.227Z,6.93
2023-11-18T02:15:46.727Z,6.81
2023-11-18T02:16:46.541Z,6.71
2023-11-18T02:18:40.878Z,6.73
2023-11-18T02:19:40.690Z,6.75
2023-11-18T02:21:50.958Z,6.79
2023-11-18T02:22:35.767Z,6.81
2023-11-18T02:23:36.316Z,6.71
2023-11-18T02:24:36.814Z,6.68
2023-11-18T02:25:35.855Z,6.82
2023-11-18T02:26:36.192Z,6.81
2023-11-18T02:27:37.267Z,6.81
2023-11-18T02:28:35.294Z,6.79
2023-11-18T02:29:35.380Z,6.83
2023-11-18T02:30:36.703Z,6.93
2023-11-18T02:31:36.220Z,6.83
2023-11-18T02:32:36.388Z,6.85
2023-11-18T02:33:35.796Z,6.86
2023-11-18T02:34:36.139Z,6.89
2023-11-18T02:35:36.636Z,6.79
2023-11-18T02:36:35.138Z,6.81
2023-11-18T02:37:35.155Z,6.68
2023-11-18T02:38:38.136Z,6.73
2023-11-18T02:39:35.142Z,6.70
2023-11-18T02:40:35.105Z,6.79
2023-11-18T02:41:35.059Z,6.75
2023-11-18T02:42:35.143Z,6.85
2023-11-18T02:43:35.136Z,6.83
2023-11-18T02:44:35.019Z,6.85
2023-11-18T02:45:35.082Z,6.79
2023-11-18T02:46:35.167Z,6.79
2023-11-18T02:47:35.093Z,6.83
2023-11-18T02:48:34.998Z,6.88
2023-11-18T02:49:35.020Z,6.83
2023-11-18T02:50:35.005Z,6.82
2023-11-18T02:51:34.988Z,6.82
2023-11-18T02:52:35.013Z,6.83
2023-11-18T02:53:34.963Z,6.82
2023-11-18T02:54:34.956Z,6.82
2023-11-18T02:55:35.055Z,6.82
2023-11-18T02:56:34.996Z,6.83
2023-11-18T02:57:34.903Z,6.81
2023-11-18T02:58:34.975Z,6.79
2023-11-18T02:59:34.945Z,6.85
2023-11-18T03:00:34.925Z,6.81
2023-11-18T03:01:35.039Z,6.96
2023-11-18T03:02:34.977Z,6.88
2023-11-18T03:03:34.889Z,6.97
2023-11-18T03:04:34.909Z,6.92
2023-11-18T03:05:34.855Z,7.06
2023-11-18T03:06:34.851Z,7.01
2023-11-18T03:07:34.885Z,7.03
2023-11-18T03:08:34.828Z,7.06
2023-11-18T03:09:34.782Z,7.04
2023-11-18T03:10:34.842Z,7.03
2023-11-18T03:11:34.781Z,7.04
2023-11-18T03:12:34.767Z,6.96
2023-11-18T03:13:34.833Z,6.89
2023-11-18T03:14:34.725Z,6.89
2023-11-18T03:15:34.714Z,6.81
2023-11-18T03:16:34.767Z,6.85
2023-11-18T03:17:34.713Z,6.85
2023-11-18T03:18:34.696Z,6.79
2023-11-18T03:19:34.716Z,6.75
2023-11-18T03:20:34.700Z,6.83
2023-11-18T03:21:34.688Z,6.81
2023-11-18T03:22:34.702Z,6.81
2023-11-18T03:23:34.714Z,6.79
2023-11-18T03:24:34.634Z,6.85
2023-11-18T03:25:34.690Z,6.85
2023-11-18T03:26:34.637Z,6.89
2023-11-18T03:27:34.602Z,6.91
2023-11-18T03:28:34.619Z,6.79
2023-11-18T03:29:34.651Z,6.83
2023-11-18T03:30:34.600Z,6.86
2023-11-18T03:31:34.632Z,6.83
2023-11-18T03:32:34.553Z,6.92
2023-11-18T03:33:34.654Z,6.88
2023-11-18T03:34:34.598Z,6.79
2023-11-18T03:35:34.705Z,6.83
2023-11-18T03:36:34.590Z,6.85
2023-11-18T03:37:34.560Z,6.83
2023-11-18T03:38:34.486Z,6.86
2023-11-18T03:39:34.511Z,6.89
2023-11-18T03:40:34.499Z,6.92
2023-11-18T03:41:34.508Z,6.91
2023-11-18T03:42:34.467Z,6.85
2023-11-18T03:43:34.482Z,6.85
2023-11-18T03:44:34.449Z,6.79
2023-11-18T03:45:34.466Z,6.79
2023-11-18T03:46:34.432Z,6.68
2023-11-18T03:47:34.474Z,6.68
2023-11-18T03:48:34.404Z,6.67
2023-11-18T03:49:34.456Z,6.70
2023-11-18T03:50:34.377Z,6.64
2023-11-18T03:51:34.356Z,6.65
2023-11-18T03:52:34.382Z,6.55
2023-11-18T03:53:34.365Z,6.70
2023-11-18T03:54:34.370Z,6.65
2023-11-18T03:55:34.377Z,6.61
2023-11-18T03:56:34.323Z,6.71
2023-11-18T03:57:34.340Z,6.74
2023-11-18T03:58:34.399Z,6.64
2023-11-18T03:59:34.309Z,6.65
2023-11-18T04:00:34.333Z,6.64
2023-11-18T04:01:35.387Z,6.67
2023-11-18T04:02:34.319Z,6.78
2023-11-18T04:03:34.334Z,6.67
2023-11-18T04:04:36.427Z,6.78
2023-11-18T04:05:34.430Z,6.68
2023-11-18T04:06:34.228Z,6.75
2023-11-18T04:07:34.227Z,6.70
2023-11-18T04:08:34.213Z,6.81
2023-11-18T04:09:34.188Z,6.71
2023-11-18T04:10:34.206Z,6.79
2023-11-18T04:11:34.208Z,6.81
2023-11-18T04:12:34.166Z,6.79
2023-11-18T04:13:34.163Z,6.64
2023-11-18T04:14:34.130Z,6.75
2023-11-18T04:15:34.162Z,6.68
2023-11-18T04:16:34.224Z,6.71
2023-11-18T04:17:34.269Z,6.71
2023-11-18T04:18:34.098Z,6.78
2023-11-18T04:19:34.179Z,6.64
2023-11-18T04:20:34.120Z,6.71
2023-11-18T04:21:34.118Z,6.71
2023-11-18T04:22:34.130Z,6.78
2023-11-18T04:23:34.100Z,6.78
2023-11-18T04:24:34.047Z,6.70
2023-11-18T04:25:34.049Z,6.75
2023-11-18T04:26:34.078Z,6.68
2023-11-18T04:27:34.052Z,6.81
2023-11-18T04:28:34.074Z,6.78
2023-11-18T04:29:33.985Z,6.78
2023-11-18T04:30:34.011Z,6.83
2023-11-18T04:31:33.977Z,6.82
2023-11-18T04:32:34.027Z,6.74
2023-11-18T04:33:33.968Z,6.71
2023-11-18T04:34:33.987Z,6.65
2023-11-18T04:35:33.971Z,6.63
2023-11-18T04:36:33.933Z,6.70
2023-11-18T04:37:33.967Z,6.74
2023-11-18T04:38:33.943Z,6.65
2023-11-18T04:39:33.918Z,6.67
2023-11-18T04:40:33.900Z,6.71
2023-11-18T04:41:33.905Z,6.73
2023-11-18T04:42:33.928Z,6.75
2023-11-18T04:43:42.374Z,6.85
2023-11-18T04:44:33.874Z,6.85
2023-11-18T04:45:33.827Z,6.71
2023-11-18T04:46:33.844Z,6.74
2023-11-18T04:47:34.093Z,6.73
2023-11-18T04:48:33.931Z,6.68
2023-11-18T04:49:33.832Z,6.56
2023-11-18T04:50:33.812Z,6.63
2023-11-18T04:51:33.760Z,6.52
2023-11-18T04:52:33.807Z,6.63
2023-11-18T04:53:33.757Z,6.53
2023-11-18T04:54:33.753Z,6.63
2023-11-18T04:55:33.745Z,6.64
2023-11-18T04:56:33.711Z,6.67
2023-11-18T04:57:33.729Z,6.70
2023-11-18T04:58:33.760Z,6.73
2023-11-18T04:59:33.730Z,6.71
2023-11-18T05:00:33.723Z,6.79
2023-11-18T05:01:33.774Z,6.83
2023-11-18T05:02:33.692Z,6.79
2023-11-18T05:03:33.742Z,6.68
2023-11-18T05:04:33.735Z,6.74
2023-11-18T05:05:33.670Z,6.71
2023-11-18T05:06:33.640Z,6.71
2023-11-18T05:07:33.635Z,6.64
2023-11-18T05:08:33.695Z,6.67
2023-11-18T05:09:33.596Z,6.56
2023-11-18T05:10:33.654Z,6.53
2023-11-18T05:11:33.582Z,6.56
2023-11-18T05:12:33.598Z,6.53
2023-11-18T05:13:33.658Z,6.40
2023-11-18T05:14:33.602Z,6.46
2023-11-18T05:15:33.541Z,6.56
2023-11-18T05:16:33.598Z,6.64
2023-11-18T05:17:33.555Z,6.52
2023-11-18T05:18:33.629Z,6.52
2023-11-18T05:19:33.581Z,6.52
2023-11-18T05:20:33.513Z,6.55
2023-11-18T05:21:33.480Z,6.53
2023-11-18T05:22:33.538Z,6.50
2023-11-18T05:23:33.500Z,6.49
2023-11-18T05:24:33.484Z,6.64
2023-11-18T05:25:33.503Z,6.67
2023-11-18T05:26:33.445Z,6.52
2023-11-18T05:27:33.404Z,6.56
2023-11-18T05:28:33.403Z,6.53
2023-11-18T05:29:33.396Z,6.53
2023-11-18T05:30:33.471Z,6.50
2023-11-18T05:31:33.485Z,6.57
2023-11-18T05:32:33.362Z,6.52
2023-11-18T05:33:33.336Z,6.52
2023-11-18T05:34:33.349Z,6.38
2023-11-18T05:35:33.351Z,6.40
2023-11-18T05:36:33.339Z,6.45
2023-11-18T05:37:33.337Z,6.52
2023-11-18T05:38:33.298Z,6.45
2023-11-18T05:39:33.351Z,6.49
2023-11-18T05:40:33.362Z,6.46
2023-11-18T05:41:33.280Z,6.53
2023-11-18T05:42:33.290Z,6.35
2023-11-18T05:43:33.242Z,6.43
2023-11-18T05:44:33.291Z,6.47
2023-11-18T05:45:33.363Z,6.46
2023-11-18T05:46:33.331Z,6.50
2023-11-18T05:47:33.278Z,6.38
2023-11-18T05:48:33.236Z,6.38
2023-11-18T05:49:33.228Z,6.45
2023-11-18T05:50:33.190Z,6.43
2023-11-18T05:51:33.184Z,6.46
2023-11-18T05:52:33.191Z,6.45
2023-11-18T05:53:34.552Z,6.42
2023-11-18T05:54:33.185Z,6.42
2023-11-18T05:55:33.120Z,6.56
2023-11-18T05:56:33.135Z,6.42
2023-11-18T05:57:33.127Z,6.61
2023-11-18T05:58:33.086Z,6.55
2023-11-18T05:59:33.153Z,6.56
2023-11-18T06:00:36.358Z,6.50
2023-11-18T06:01:33.182Z,6.50
2023-11-18T06:02:33.213Z,6.56
2023-11-18T06:03:33.130Z,6.63
2023-11-18T06:04:33.072Z,6.65
2023-11-18T06:05:33.011Z,6.61
2023-11-18T06:06:33.068Z,6.68
2023-11-18T06:07:33.046Z,6.68
2023-11-18T06:08:33.025Z,6.70
2023-11-18T06:09:32.979Z,6.75
2023-11-18T06:10:32.998Z,6.67
2023-11-18T06:11:32.977Z,6.79
2023-11-18T06:12:32.943Z,6.74
2023-11-18T06:13:32.934Z,6.79
2023-11-18T06:14:32.970Z,6.71
2023-11-18T06:15:32.965Z,6.70
2023-11-18T06:16:32.961Z,6.75
2023-11-18T06:17:32.990Z,6.68
2023-11-18T06:18:32.967Z,6.82
2023-11-18T06:19:32.892Z,6.81
2023-11-18T06:20:32.941Z,6.78
2023-11-18T06:21:32.847Z,6.78
2023-11-18T06:22:32.895Z,6.85
2023-11-18T06:23:32.847Z,6.82
2023-11-18T06:24:32.825Z,6.79
2023-11-18T06:25:32.928Z,6.74
2023-11-18T06:26:32.797Z,6.75
2023-11-18T06:27:32.790Z,6.82
2023-11-18T06:28:32.778Z,6.83
2023-11-18T06:29:32.797Z,6.85
2023-11-18T06:30:32.756Z,6.88
2023-11-18T06:31:32.770Z,6.89
2023-11-18T06:32:32.815Z,6.86
2023-11-18T06:33:32.807Z,6.81
2023-11-18T06:34:32.760Z,6.86
2023-11-18T06:35:32.745Z,6.88
2023-11-18T06:36:32.704Z,6.92
2023-11-18T06:37:32.767Z,6.93
2023-11-18T06:38:32.737Z,6.88
2023-11-18T06:39:32.676Z,6.86
2023-11-18T06:40:32.739Z,6.93
2023-11-18T06:41:32.742Z,6.96
2023-11-18T06:42:32.671Z,6.99
2023-11-18T06:43:32.642Z,6.96
2023-11-18T06:44:32.648Z,6.99
2023-11-18T06:45:32.629Z,6.99
2023-11-18T06:46:32.608Z,6.92
2023-11-18T06:47:32.722Z,6.97
2023-11-18T06:48:32.614Z,6.89
2023-11-18T06:49:32.607Z,6.93
2023-11-18T06:50:32.556Z,6.93
2023-11-18T06:51:32.600Z,6.89
2023-11-18T06:52:32.546Z,6.96
2023-11-18T06:53:32.552Z,7.06
2023-11-18T06:54:32.536Z,7.00
2023-11-18T06:55:32.593Z,7.00
2023-11-18T06:56:32.579Z,7.03
2023-11-18T06:57:32.490Z,6.97
2023-11-18T06:58:32.491Z,7.07
2023-11-18T06:59:32.509Z,7.07
2023-11-18T07:00:32.524Z,7.07
2023-11-18T07:01:32.465Z,7.11
2023-11-18T07:02:32.452Z,7.15
2023-11-18T07:03:32.543Z,7.13
2023-11-18T07:04:32.415Z,7.10
2023-11-18T07:05:32.467Z,7.10
2023-11-18T07:06:32.544Z,7.11
2023-11-18T07:07:32.393Z,7.13
2023-11-18T07:08:32.399Z,7.16
2023-11-18T07:09:32.431Z,7.10
2023-11-18T07:10:32.356Z,7.06
2023-11-18T07:11:32.379Z,7.21
2023-11-18T07:12:32.363Z,7.15
2023-11-18T07:13:32.341Z,7.24
2023-11-18T07:14:32.322Z,7.18
2023-11-18T07:15:32.386Z,7.33
2023-11-18T07:16:32.337Z,7.36
2023-11-18T07:17:32.368Z,7.40
2023-11-18T07:18:34.892Z,7.39
2023-11-18T07:19:32.290Z,7.29
2023-11-18T07:20:32.254Z,7.31
2023-11-18T07:21:32.286Z,7.37
2023-11-18T07:22:32.249Z,7.39
2023-11-18T07:23:32.230Z,7.37
2023-11-18T07:24:32.234Z,7.37
2023-11-18T07:25:32.258Z,7.49
2023-11-18T07:26:32.203Z,7.39
2023-11-18T07:27:32.222Z,7.36
2023-11-18T07:28:32.269Z,7.46
2023-11-18T07:29:32.171Z,7.43
2023-11-18T07:30:32.241Z,7.44
2023-11-18T07:31:32.250Z,7.50
2023-11-18T07:32:32.205Z,7.55
2023-11-18T07:33:32.201Z,7.58
2023-11-18T07:34:32.154Z,7.61
2023-11-18T07:35:32.160Z,7.62
2023-11-18T07:36:32.134Z,7.55
2023-11-18T07:37:32.139Z,7.68
2023-11-18T07:38:32.149Z,7.66
2023-11-18T07:39:32.131Z,7.66
2023-11-18T07:40:32.069Z,7.69
2023-11-18T07:41:33.646Z,7.68
2023-11-18T07:42:32.085Z,7.64
2023-11-18T07:43:32.137Z,7.69
2023-11-18T07:44:32.045Z,7.71
2023-11-18T07:45:32.076Z,7.69
2023-11-18T07:46:32.803Z,7.71
2023-11-18T07:47:32.054Z,7.71
2023-11-18T07:48:31.981Z,7.77
2023-11-18T07:49:32.001Z,7.76
2023-11-18T07:50:31.969Z,7.73
2023-11-18T07:51:32.014Z,7.77
2023-11-18T07:52:31.954Z,7.69
2023-11-18T07:53:31.974Z,7.71
2023-11-18T07:54:31.954Z,7.77
2023-11-18T07:55:31.916Z,7.73
2023-11-18T07:56:31.921Z,7.66
2023-11-18T07:57:31.915Z,7.64
2023-11-18T07:58:31.883Z,7.68
2023-11-18T07:59:31.911Z,7.78
2023-11-18T08:00:31.953Z,7.84
2023-11-18T08:01:31.930Z,7.88
2023-11-18T08:02:31.964Z,7.81
2023-11-18T08:03:31.983Z,7.83
2023-11-18T08:04:31.911Z,7.92
2023-11-18T08:05:31.868Z,7.81
2023-11-18T08:06:31.853Z,7.84
2023-11-18T08:07:31.809Z,7.86
2023-11-18T08:08:31.805Z,7.95
2023-11-18T08:09:31.800Z,7.96
2023-11-18T08:10:31.797Z,8.04
2023-11-18T08:11:31.793Z,7.94
2023-11-18T08:12:31.755Z,7.92
2023-11-18T08:13:31.763Z,8.06
2023-11-18T08:14:31.745Z,8.01
2023-11-18T08:15:31.777Z,8.04
2023-11-18T08:16:31.813Z,8.09
2023-11-18T08:17:31.888Z,8.06
2023-11-18T08:18:31.738Z,8.12
2023-11-18T08:19:31.738Z,8.13
2023-11-18T08:20:31.736Z,8.12
2023-11-18T08:21:31.695Z,8.01
2023-11-18T08:22:31.680Z,8.16
2023-11-18T08:23:31.677Z,8.04
2023-11-18T08:24:31.690Z,8.09
2023-11-18T08:25:31.659Z,8.17
2023-11-18T08:26:31.642Z,8.17
2023-11-18T08:27:31.640Z,8.01
2023-11-18T08:28:31.617Z,8.13
2023-11-18T08:29:31.614Z,8.28
2023-11-18T08:30:31.593Z,8.24
2023-11-18T08:31:31.621Z,8.24
2023-11-18T08:32:31.710Z,8.20
2023-11-18T08:33:31.677Z,8.20
2023-11-18T08:34:31.608Z,8.24
2023-11-18T08:35:31.596Z,8.20
2023-11-18T08:36:31.596Z,8.21
2023-11-18T08:37:31.529Z,8.21
2023-11-18T08:38:31.604Z,8.21
2023-11-18T08:39:31.509Z,8.16
2023-11-18T08:40:31.504Z,8.19
2023-11-18T08:41:31.543Z,8.12
2023-11-18T08:42:31.533Z,8.21
2023-11-18T08:43:31.457Z,8.19
2023-11-18T08:44:31.529Z,8.21
2023-11-18T08:45:31.518Z,8.31
2023-11-18T08:46:31.533Z,8.29
2023-11-18T08:47:31.453Z,8.26
2023-11-18T08:48:31.410Z,8.32
2023-11-18T08:49:31.418Z,8.24
2023-11-18T08:50:31.431Z,8.26
2023-11-18T08:51:31.457Z,8.26
2023-11-18T08:52:31.385Z,8.26
2023-11-18T08:53:31.372Z,8.31
2023-11-18T08:54:31.381Z,8.34
2023-11-18T08:55:31.382Z,8.44
2023-11-18T08:56:31.392Z,8.39
2023-11-18T08:57:31.355Z,8.38
2023-11-18T08:58:31.340Z,8.31
2023-11-18T08:59:31.337Z,8.41
2023-11-18T09:00:31.295Z,8.39
2023-11-18T09:01:31.349Z,8.37
2023-11-18T09:02:34.676Z,8.24
2023-11-18T09:03:31.349Z,8.35
2023-11-18T09:04:31.377Z,8.35
2023-11-18T09:05:31.251Z,8.34
2023-11-18T09:06:31.247Z,8.34
2023-11-18T09:07:31.225Z,8.34
2023-11-18T09:08:31.278Z,8.34
2023-11-18T09:09:31.209Z,8.32
2023-11-18T09:10:31.272Z,8.29
2023-11-18T09:11:31.221Z,8.39
2023-11-18T09:12:31.244Z,8.37
2023-11-18T09:13:31.375Z,8.46
2023-11-18T09:14:31.237Z,8.50
2023-11-18T09:15:31.155Z,8.41
2023-11-18T09:16:31.846Z,8.35
2023-11-18T09:17:31.234Z,8.35
2023-11-18T09:18:31.220Z,8.32
2023-11-18T09:19:31.148Z,8.41
2023-11-18T09:20:31.126Z,8.49
2023-11-18T09:21:31.387Z,8.41
2023-11-18T09:22:31.108Z,8.44
2023-11-18T09:23:31.129Z,8.39
2023-11-18T09:24:32.634Z,8.49
2023-11-18T09:25:31.096Z,8.47
2023-11-18T09:26:31.386Z,8.42
2023-11-18T09:27:31.074Z,8.49
2023-11-18T09:28:31.070Z,8.41
2023-11-18T09:29:31.074Z,8.41
2023-11-18T09:30:31.007Z,8.41
2023-11-18T09:31:31.038Z,8.44
2023-11-18T09:32:31.143Z,8.38
2023-11-18T09:33:31.083Z,8.49
2023-11-18T09:34:30.976Z,8.32
2023-11-18T09:35:31.014Z,8.31
2023-11-18T09:36:30.998Z,8.47
2023-11-18T09:37:30.946Z,8.42
2023-11-18T09:38:30.951Z,8.42
2023-11-18T09:39:30.951Z,8.56
2023-11-18T09:40:31.011Z,8.50
2023-11-18T09:41:30.916Z,8.49
2023-11-18T09:42:30.946Z,8.41
2023-11-18T09:43:30.911Z,8.57
2023-11-18T09:44:30.883Z,8.56
2023-11-18T09:45:30.916Z,8.52
2023-11-18T09:46:32.750Z,8.53
2023-11-18T09:47:30.927Z,8.50
2023-11-18T09:48:30.844Z,8.42
2023-11-18T09:49:30.885Z,8.53
2023-11-18T09:50:30.967Z,8.53
2023-11-18T09:51:30.830Z,8.56
2023-11-18T09:52:30.812Z,8.50
2023-11-18T09:53:30.813Z,8.52
2023-11-18T09:54:30.774Z,8.53
2023-11-18T09:55:31.416Z,8.53
2023-11-18T09:56:30.813Z,8.52
2023-11-18T09:57:30.777Z,8.53
2023-11-18T09:58:30.784Z,8.55
2023-11-18T09:59:30.763Z,8.57
2023-11-18T10:00:30.776Z,8.60
2023-11-18T10:01:30.786Z,8.70
2023-11-18T10:02:30.921Z,8.63
2023-11-18T10:03:30.848Z,8.68
2023-11-18T10:04:30.698Z,8.71
2023-11-18T10:05:30.687Z,8.65
2023-11-18T10:06:30.666Z,8.67
2023-11-18T10:07:30.645Z,8.68
2023-11-18T10:08:30.642Z,8.60
2023-11-18T10:09:30.634Z,8.77
2023-11-18T10:10:30.636Z,8.71
2023-11-18T10:11:30.606Z,8.67
2023-11-18T10:12:30.653Z,8.74
2023-11-18T10:13:30.647Z,8.72
2023-11-18T10:14:30.614Z,8.74
2023-11-18T10:15:52.648Z,8.74
2023-11-18T10:16:30.559Z,8.81
2023-11-18T10:19:04.244Z,8.83
2023-11-18T10:20:04.174Z,8.86
2023-11-18T10:22:03.194Z,8.81
2023-11-18T10:23:00.307Z,8.83
2023-11-18T10:25:46.456Z,8.90
2023-11-18T10:26:46.328Z,8.88
2023-11-18T10:28:41.875Z,8.98
2023-11-18T10:29:52.086Z,9.01
2023-11-18T10:30:42.989Z,9.03
2023-11-18T10:31:43.073Z,8.98
2023-11-18T10:32:42.628Z,8.93
2023-11-18T10:33:42.171Z,8.98
2023-11-18T10:34:42.631Z,9.03
2023-11-18T10:35:43.756Z,8.95
2023-11-18T10:36:43.029Z,8.99
2023-11-18T10:37:43.104Z,8.98
2023-11-18T10:38:41.683Z,8.99
2023-11-18T10:39:41.973Z,8.93
2023-11-18T10:40:42.540Z,8.96
2023-11-18T10:41:43.716Z,8.98
2023-11-18T10:42:42.465Z,8.98
2023-11-18T10:43:43.549Z,8.95
2023-11-18T10:44:43.020Z,8.96
2023-11-18T10:45:44.466Z,9.01
2023-11-18T10:46:41.475Z,8.95
2023-11-18T10:47:41.488Z,8.93
2023-11-18T10:48:41.460Z,9.04
2023-11-18T10:49:41.419Z,8.98
2023-11-18T10:50:41.430Z,9.08
2023-11-18T10:51:41.379Z,8.99
2023-11-18T10:52:41.367Z,9.08
2023-11-18T10:53:41.397Z,9.08
2023-11-18T10:54:41.400Z,9.06
2023-11-18T10:55:41.432Z,9.12
2023-11-18T10:56:41.345Z,9.15
2023-11-18T10:57:41.332Z,9.12
2023-11-18T10:58:41.314Z,9.04
2023-11-18T10:59:41.341Z,8.95
2023-11-18T11:00:41.331Z,8.96
2023-11-18T11:01:41.401Z,8.99
2023-11-18T11:02:41.426Z,9.09
2023-11-18T11:03:41.309Z,9.16
2023-11-18T11:04:42.447Z,9.04
2023-11-18T11:05:41.378Z,8.95
2023-11-18T11:06:41.247Z,8.99
2023-11-18T11:07:41.303Z,9.06
2023-11-18T11:08:42.405Z,8.95
2023-11-18T11:09:41.236Z,9.03
2023-11-18T11:11:03.904Z,8.96
2023-11-18T11:11:41.294Z,9.06
2023-11-18T11:12:41.204Z,8.96
2023-11-18T11:13:41.397Z,9.04
2023-11-18T11:14:41.166Z,9.03
2023-11-18T11:15:48.765Z,9.03
2023-11-18T11:16:41.278Z,9.08
2023-11-18T11:17:41.257Z,9.01
2023-11-18T11:18:41.214Z,9.03
2023-11-18T11:19:41.138Z,9.09
2023-11-18T11:20:41.129Z,9.08
2023-11-18T11:21:41.099Z,9.06
2023-11-18T11:22:41.125Z,8.99
2023-11-18T11:23:41.123Z,9.04
2023-11-18T12:12:00.434Z,9.14
2023-11-18T12:12:59.335Z,9.08
2023-11-18T12:36:11.010Z,9.30
2023-11-18T12:36:59.838Z,9.23
2023-11-18T12:42:43.743Z,9.24
2023-11-18T12:43:42.722Z,9.29
2023-11-18T12:44:42.693Z,9.26
2023-11-18T12:45:42.446Z,9.41
2023-11-18T12:46:42.698Z,9.32
2023-11-18T12:47:43.290Z,9.33
2023-11-18T12:48:43.265Z,9.34
2023-11-18T12:49:43.153Z,9.34
2023-11-18T12:50:42.648Z,9.42
2023-11-18T12:51:42.562Z,9.45
2023-11-18T12:52:42.154Z,9.52
2023-11-18T12:53:42.293Z,9.44
2023-11-18T12:54:42.591Z,9.48
2023-11-18T12:55:42.612Z,9.41
2023-11-18T12:56:43.022Z,9.52
2023-11-18T12:57:42.557Z,9.47
2023-11-18T12:58:43.050Z,9.51
2023-11-18T12:59:43.288Z,9.47
2023-11-18T13:00:42.984Z,9.50
2023-11-18T13:01:42.190Z,9.54
2023-11-18T13:02:42.275Z,9.54
2023-11-18T13:03:42.186Z,9.55
2023-11-18T13:04:42.225Z,9.59
2023-11-18T13:05:42.026Z,9.52
2023-11-18T13:06:42.027Z,9.55
2023-11-18T13:07:42.029Z,9.51
2023-11-18T13:08:41.984Z,9.55
2023-11-18T13:09:41.992Z,9.55
2023-11-18T13:10:42.004Z,9.52
2023-11-18T13:11:41.981Z,9.55
2023-11-18T13:12:41.958Z,9.54
2023-11-18T13:13:42.018Z,9.51
2023-11-18T13:14:41.940Z,9.50
2023-11-18T13:15:41.954Z,9.48
2023-11-18T13:16:41.960Z,9.54
2023-11-18T13:17:42.194Z,9.52
2023-11-18T13:18:41.973Z,9.55
2023-11-18T13:19:41.887Z,9.47
2023-11-18T13:20:41.878Z,9.52
2023-11-18T13:21:41.873Z,9.47
2023-11-18T13:22:47.865Z,9.57
2023-11-18T13:23:41.849Z,9.48
2023-11-18T13:24:41.880Z,9.52
2023-11-18T13:25:41.878Z,9.51
2023-11-18T13:26:41.856Z,9.54
2023-11-18T13:27:41.818Z,9.51
2023-11-18T13:28:41.866Z,9.51
2023-11-18T13:29:41.825Z,9.44
2023-11-18T13:30:41.816Z,9.44
2023-11-18T13:31:41.788Z,9.41
2023-11-18T13:32:41.824Z,9.34
2023-11-18T13:33:41.788Z,9.34
2023-11-18T13:54:06.549Z,9.30
2023-11-18T13:58:27.847Z,9.32
2023-11-18T13:59:27.826Z,9.36
2023-11-18T14:02:39.737Z,9.34
2023-11-18T14:03:40.141Z,9.30
2023-11-18T14:06:51.245Z,9.26
2023-11-18T14:07:51.470Z,9.32
2023-11-18T14:09:47.514Z,9.33
2023-11-18T14:10:48.058Z,9.41
2023-11-18T14:14:15.807Z,9.41
2023-11-18T14:15:08.911Z,9.44
2023-11-18T14:17:26.240Z,9.42
2023-11-18T14:19:00.580Z,9.48
2023-11-18T14:21:39.541Z,9.48
2023-11-18T14:22:39.367Z,9.47
2023-11-18T14:27:15.897Z,9.37
2023-11-18T14:28:15.909Z,9.47
2023-11-18T14:30:13.089Z,9.40
2023-11-18T14:31:13.879Z,9.33
2023-11-18T14:33:07.397Z,9.47
2023-11-18T14:34:07.480Z,9.37
2023-11-18T14:36:02.791Z,9.33
2023-11-18T14:37:02.692Z,9.45
2023-11-18T14:38:56.686Z,9.37
2023-11-18T14:39:56.776Z,9.37
2023-11-18T14:43:14.935Z,9.37
2023-11-18T14:44:09.118Z,9.34
2023-11-18T14:46:04.129Z,9.27
2023-11-18T14:47:05.574Z,9.26
2023-11-18T14:49:00.471Z,9.26
2023-11-18T14:49:57.782Z,9.30
2023-11-18T14:55:08.217Z,9.16
2023-11-18T14:56:08.182Z,9.09
2023-11-18T14:58:02.400Z,9.16
2023-11-18T14:59:02.334Z,9.18
2023-11-18T15:00:56.402Z,9.06
2023-11-18T15:01:56.476Z,9.06
2023-11-18T15:03:51.153Z,8.98
2023-11-18T15:04:50.823Z,9.04
2023-11-18T15:10:12.645Z,8.99
2023-11-18T15:11:12.299Z,9.01
2023-11-18T15:13:08.238Z,8.98
2023-11-18T15:14:07.949Z,8.96
2023-11-18T15:18:01.376Z,9.09
2023-11-18T15:25:48.885Z,8.95
2023-11-18T15:26:51.071Z,8.93
2023-11-18T15:30:22.438Z,8.89
2023-11-18T15:31:22.978Z,8.90
2023-11-18T15:33:18.239Z,8.95
2023-11-18T15:37:54.203Z,8.85
2023-11-18T15:38:55.845Z,8.85
2023-11-18T15:43:46.282Z,8.96
2023-11-18T15:52:59.223Z,8.89
2023-11-18T15:53:59.111Z,8.77
2023-11-18T15:54:57.087Z,8.92
2023-11-18T15:55:58.244Z,8.89
2023-11-18T15:57:00.067Z,8.93
2023-11-18T15:57:58.017Z,8.96
2023-11-18T15:58:58.197Z,8.96
2023-11-18T15:59:57.909Z,8.92
2023-11-18T16:00:57.446Z,8.96
2023-11-18T16:01:57.433Z,8.93
2023-11-18T16:03:01.612Z,8.95
2023-11-18T16:03:58.888Z,8.93
2023-11-18T16:04:58.266Z,9.04
2023-11-18T16:05:56.894Z,8.99
2023-11-18T16:06:56.946Z,8.92
2023-11-18T16:07:58.232Z,8.89
2023-11-18T16:09:19.927Z,8.98
2023-11-18T16:09:58.691Z,8.96
2023-11-18T16:10:57.358Z,8.92
2023-11-18T16:11:57.811Z,8.80
2023-11-18T16:12:56.808Z,8.88
2023-11-18T16:13:57.093Z,8.86
2023-11-18T16:14:56.935Z,8.83
2023-11-18T16:15:56.769Z,8.88
2023-11-18T16:16:56.895Z,8.93
2023-11-18T16:17:56.926Z,8.95
2023-11-18T16:18:56.808Z,8.88
2023-11-18T16:19:56.737Z,8.90
2023-11-18T16:20:56.703Z,8.99
2023-11-18T16:21:56.684Z,8.86
2023-11-18T16:22:56.738Z,8.83
2023-11-18T16:23:56.691Z,8.92
2023-11-18T16:24:56.657Z,9.01